sensor_id;sensor_type;location;lat;lon;timestamp;pressure;altitude;pressure_sealevel;temperature;humidity
14800;BME280;7491;57.750;11.970;2024-03-23T00:55:35;75421.72;;;-142.11;100.00
14800;BME280;7491;57.750;11.970;2024-03-23T00:58:02;75411.53;;;-142.11;100.00
14800;BME280;7491;57.750;11.970;2024-03-23T01:00:29;75411.53;;;-142.11;100.00
14800;BME280;7491;57.750;11.970;2024-03-23T01:02:55;75421.72;;;-142.11;100.00
14800;BME280;7491;57.750;11.970;2024-03-23T01:05:21;75411.53;;;-142.11;100.00
14800;BME280;7491;57.750;11.970;2024-03-23T01:07:48;75415.63;;;-142.11;100.00
14800;BME280;7491;57.750;11.970;2024-03-23T01:10:13;75411.53;;;-142.11;100.00
14800;BME280;7491;57.750;11.970;2024-03-23T01:12:40;75401.34;;;-142.11;100.00
14800;BME280;7491;57.750;11.970;2024-03-23T01:15:06;75391.16;;;-142.11;100.00
14800;BME280;7491;57.750;11.970;2024-03-23T01:17:35;75393.19;;;-142.11;100.00
14800;BME280;7491;57.750;11.970;2024-03-23T01:20:01;75393.19;;;-142.11;100.00
14800;BME280;7491;57.750;11.970;2024-03-23T01:22:28;75411.53;;;-142.11;100.00
14800;BME280;7491;57.750;11.970;2024-03-23T01:24:53;75389.13;;;-142.11;100.00
14800;BME280;7491;57.750;11.970;2024-03-23T01:27:20;75391.16;;;-142.11;100.00
14800;BME280;7491;57.750;11.970;2024-03-23T01:29:46;75391.16;;;-142.11;100.00
14800;BME280;7491;57.750;11.970;2024-03-23T01:32:13;75401.34;;;-142.11;100.00
14800;BME280;7491;57.750;11.970;2024-03-23T01:34:40;75391.16;;;-142.11;100.00
14800;BME280;7491;57.750;11.970;2024-03-23T01:37:07;75401.34;;;-142.11;100.00
14800;BME280;7491;57.750;11.970;2024-03-23T01:39:33;75380.97;;;-142.11;100.00
14800;BME280;7491;57.750;11.970;2024-03-23T01:41:59;75391.16;;;-142.11;100.00
14800;BME280;7491;57.750;11.970;2024-03-23T01:44:25;75391.16;;;-142.11;100.00
14800;BME280;7491;57.750;11.970;2024-03-23T01:46:52;75383.00;;;-142.11;100.00
14800;BME280;7491;57.750;11.970;2024-03-23T01:49:17;75389.13;;;-142.11;100.00
14800;BME280;7491;57.750;11.970;2024-03-23T01:51:46;75401.34;;;-142.11;100.00
14800;BME280;7491;57.750;11.970;2024-03-23T01:54:12;75397.28;;;-142.11;100.00
14800;BME280;7491;57.750;11.970;2024-03-23T01:56:39;75385.03;;;-142.11;100.00
14800;BME280;7491;57.750;11.970;2024-03-23T01:59:05;75391.16;;;-142.11;100.00
14800;BME280;7491;57.750;11.970;2024-03-23T02:01:32;75399.31;;;-142.11;100.00
14800;BME280;7491;57.750;11.970;2024-03-23T02:03:58;75409.50;;;-142.11;100.00
14800;BME280;7491;57.750;11.970;2024-03-23T02:06:25;75389.13;;;-142.11;100.00
14800;BME280;7491;57.750;11.970;2024-03-23T02:08:52;75364.66;;;-142.11;100.00
14800;BME280;7491;57.750;11.970;2024-03-23T02:11:19;75370.78;;;-142.11;100.00
14800;BME280;7491;57.750;11.970;2024-03-23T02:13:45;75391.16;;;-142.11;100.00
14800;BME280;7491;57.750;11.970;2024-03-23T02:16:12;75368.75;;;-142.11;100.00
14800;BME280;7491;57.750;11.970;2024-03-23T02:18:38;75378.94;;;-142.11;100.00
14800;BME280;7491;57.750;11.970;2024-03-23T02:21:05;75407.47;;;-142.11;100.00
14800;BME280;7491;57.750;11.970;2024-03-23T02:23:32;75372.81;;;-142.11;100.00
14800;BME280;7491;57.750;11.970;2024-03-23T02:25:59;75385.03;;;-142.11;100.00
14800;BME280;7491;57.750;11.970;2024-03-23T02:28:25;75393.19;;;-142.11;100.00
14800;BME280;7491;57.750;11.970;2024-03-23T02:30:52;75393.19;;;-142.11;100.00
14800;BME280;7491;57.750;11.970;2024-03-23T02:33:18;75403.38;;;-142.11;100.00
14800;BME280;7491;57.750;11.970;2024-03-23T02:35:45;75411.53;;;-142.11;100.00
14800;BME280;7491;57.750;11.970;2024-03-23T02:38:11;75391.16;;;-142.11;100.00
14800;BME280;7491;57.750;11.970;2024-03-23T02:40:40;75399.31;;;-142.11;100.00
14800;BME280;7491;57.750;11.970;2024-03-23T02:43:05;75415.63;;;-142.11;100.00
14800;BME280;7491;57.750;11.970;2024-03-23T02:45:32;75421.72;;;-142.11;100.00
14800;BME280;7491;57.750;11.970;2024-03-23T02:47:58;75431.91;;;-142.11;100.00
14800;BME280;7491;57.750;11.970;2024-03-23T02:50:25;75433.97;;;-142.11;100.00
14800;BME280;7491;57.750;11.970;2024-03-23T02:52:50;75433.97;;;-142.11;100.00
14800;BME280;7491;57.750;11.970;2024-03-23T02:55:17;75413.56;;;-142.11;100.00
14800;BME280;7491;57.750;11.970;2024-03-23T02:57:44;75419.69;;;-142.11;100.00
14800;BME280;7491;57.750;11.970;2024-03-23T03:00:12;75399.31;;;-142.11;100.00
14800;BME280;7491;57.750;11.970;2024-03-23T03:02:38;75393.19;;;-142.11;100.00
14800;BME280;7491;57.750;11.970;2024-03-23T03:05:06;75387.09;;;-142.11;100.00
14800;BME280;7491;57.750;11.970;2024-03-23T03:07:31;75413.56;;;-142.11;100.00
14800;BME280;7491;57.750;11.970;2024-03-23T03:09:58;75397.28;;;-142.11;100.00
14800;BME280;7491;57.750;11.970;2024-03-23T03:12:24;75401.34;;;-142.11;100.00
14800;BME280;7491;57.750;11.970;2024-03-23T03:14:52;75393.19;;;-142.11;100.00
14800;BME280;7491;57.750;11.970;2024-03-23T03:17:18;75385.03;;;-142.11;100.00
14800;BME280;7491;57.750;11.970;2024-03-23T03:19:45;75378.94;;;-142.11;100.00
14800;BME280;7491;57.750;11.970;2024-03-23T03:22:11;75360.59;;;-142.11;100.00
14800;BME280;7491;57.750;11.970;2024-03-23T03:24:38;75380.97;;;-142.11;100.00
14800;BME280;7491;57.750;11.970;2024-03-23T03:27:03;75364.66;;;-142.11;100.00
14800;BME280;7491;57.750;11.970;2024-03-23T03:29:32;75366.72;;;-142.11;100.00
14800;BME280;7491;57.750;11.970;2024-03-23T03:32:02;75364.66;;;-142.11;100.00
14800;BME280;7491;57.750;11.970;2024-03-23T03:34:29;75378.94;;;-142.11;100.00
14800;BME280;7491;57.750;11.970;2024-03-23T03:36:54;75354.47;;;-142.11;100.00
14800;BME280;7491;57.750;11.970;2024-03-23T03:39:21;75366.72;;;-142.11;100.00
14800;BME280;7491;57.750;11.970;2024-03-23T03:41:48;75380.97;;;-142.11;100.00
14800;BME280;7491;57.750;11.970;2024-03-23T03:44:14;75372.81;;;-142.11;100.00
14800;BME280;7491;57.750;11.970;2024-03-23T03:46:40;75372.81;;;-142.11;100.00
14800;BME280;7491;57.750;11.970;2024-03-23T03:49:08;75387.09;;;-142.11;100.00
14800;BME280;7491;57.750;11.970;2024-03-23T03:51:34;75372.81;;;-142.11;100.00
14800;BME280;7491;57.750;11.970;2024-03-23T03:54:01;75350.41;;;-142.11;100.00
14800;BME280;7491;57.750;11.970;2024-03-23T03:56:27;75362.63;;;-142.11;100.00
14800;BME280;7491;57.750;11.970;2024-03-23T03:58:54;75368.75;;;-142.11;100.00
14800;BME280;7491;57.750;11.970;2024-03-23T04:01:20;75354.47;;;-142.11;100.00
14800;BME280;7491;57.750;11.970;2024-03-23T04:03:46;75356.50;;;-142.11;100.00
14800;BME280;7491;57.750;11.970;2024-03-23T04:06:18;75360.59;;;-142.11;100.00
14800;BME280;7491;57.750;11.970;2024-03-23T04:08:45;75356.50;;;-142.11;100.00
14800;BME280;7491;57.750;11.970;2024-03-23T04:11:10;75352.44;;;-142.11;100.00
14800;BME280;7491;57.750;11.970;2024-03-23T04:13:37;75356.50;;;-142.11;100.00
14800;BME280;7491;57.750;11.970;2024-03-23T04:16:04;75372.81;;;-142.11;100.00
14800;BME280;7491;57.750;11.970;2024-03-23T04:18:30;75374.84;;;-142.11;100.00
14800;BME280;7491;57.750;11.970;2024-03-23T04:20:56;75389.13;;;-142.11;100.00
14800;BME280;7491;57.750;11.970;2024-03-23T04:23:24;75366.72;;;-142.11;100.00
14800;BME280;7491;57.750;11.970;2024-03-23T04:25:50;75364.66;;;-142.11;100.00
14800;BME280;7491;57.750;11.970;2024-03-23T04:28:18;75358.56;;;-142.11;100.00
14800;BME280;7491;57.750;11.970;2024-03-23T04:30:44;75342.25;;;-142.11;100.00
14800;BME280;7491;57.750;11.970;2024-03-23T04:33:11;75374.84;;;-142.11;100.00
14800;BME280;7491;57.750;11.970;2024-03-23T04:35:36;75370.78;;;-142.11;100.00
14800;BME280;7491;57.750;11.970;2024-03-23T04:38:03;75366.72;;;-142.11;100.00
14800;BME280;7491;57.750;11.970;2024-03-23T04:40:31;75362.63;;;-142.11;100.00
14800;BME280;7491;57.750;11.970;2024-03-23T04:42:58;75358.56;;;-142.11;100.00
14800;BME280;7491;57.750;11.970;2024-03-23T04:45:26;75372.81;;;-142.11;100.00
14800;BME280;7491;57.750;11.970;2024-03-23T04:47:52;75368.75;;;-142.11;100.00
14800;BME280;7491;57.750;11.970;2024-03-23T04:50:18;75356.50;;;-142.11;100.00
14800;BME280;7491;57.750;11.970;2024-03-23T04:52:45;75358.56;;;-142.11;100.00
14800;BME280;7491;57.750;11.970;2024-03-23T04:55:12;75358.56;;;-142.11;100.00
14800;BME280;7491;57.750;11.970;2024-03-23T04:57:41;75374.84;;;-142.11;100.00
14800;BME280;7491;57.750;11.970;2024-03-23T05:00:07;75372.81;;;-142.11;100.00
14800;BME280;7491;57.750;11.970;2024-03-23T05:02:43;75364.66;;;-142.11;100.00
14800;BME280;7491;57.750;11.970;2024-03-23T05:05:09;75366.72;;;-142.11;100.00
14800;BME280;7491;57.750;11.970;2024-03-23T05:07:35;75344.28;;;-142.11;100.00
14800;BME280;7491;57.750;11.970;2024-03-23T05:10:02;75366.72;;;-142.11;100.00
14800;BME280;7491;57.750;11.970;2024-03-23T05:12:28;75374.84;;;-142.11;100.00
14800;BME280;7491;57.750;11.970;2024-03-23T05:14:56;75360.59;;;-142.11;100.00
14800;BME280;7491;57.750;11.970;2024-03-23T05:17:22;75350.41;;;-142.11;100.00
14800;BME280;7491;57.750;11.970;2024-03-23T05:19:49;75354.47;;;-142.11;100.00
14800;BME280;7491;57.750;11.970;2024-03-23T05:22:15;75340.22;;;-142.11;100.00
14800;BME280;7491;57.750;11.970;2024-03-23T05:24:42;75356.50;;;-142.11;100.00
14800;BME280;7491;57.750;11.970;2024-03-23T05:27:07;75360.59;;;-142.11;100.00
14800;BME280;7491;57.750;11.970;2024-03-23T05:29:34;75350.41;;;-142.11;100.00
14800;BME280;7491;57.750;11.970;2024-03-23T05:32:01;75348.38;;;-142.11;100.00
14800;BME280;7491;57.750;11.970;2024-03-23T05:34:28;75354.47;;;-142.11;100.00
14800;BME280;7491;57.750;11.970;2024-03-23T05:36:54;75352.44;;;-142.11;100.00
14800;BME280;7491;57.750;11.970;2024-03-23T05:39:21;75360.59;;;-142.11;100.00
14800;BME280;7491;57.750;11.970;2024-03-23T05:41:47;75350.41;;;-142.11;100.00
14800;BME280;7491;57.750;11.970;2024-03-23T05:44:14;75356.50;;;-142.11;100.00
14800;BME280;7491;57.750;11.970;2024-03-23T05:46:41;75360.59;;;-142.11;100.00
14800;BME280;7491;57.750;11.970;2024-03-23T05:49:09;75348.38;;;-142.11;100.00
14800;BME280;7491;57.750;11.970;2024-03-23T05:51:35;75327.97;;;-142.11;100.00
14800;BME280;7491;57.750;11.970;2024-03-23T05:54:01;75319.81;;;-142.11;100.00
14800;BME280;7491;57.750;11.970;2024-03-23T05:56:27;75313.72;;;-142.11;100.00
14800;BME280;7491;57.750;11.970;2024-03-23T05:58:54;75309.63;;;-142.11;100.00
14800;BME280;7491;57.750;11.970;2024-03-23T06:01:21;75297.41;;;-142.11;100.00
14800;BME280;7491;57.750;11.970;2024-03-23T06:03:46;75283.16;;;-142.11;100.00
14800;BME280;7491;57.750;11.970;2024-03-23T06:06:15;75277.03;;;-142.11;100.00
14800;BME280;7491;57.750;11.970;2024-03-23T06:08:40;75285.19;;;-142.11;100.00
14800;BME280;7491;57.750;11.970;2024-03-23T06:11:07;75285.19;;;-142.11;100.00
14800;BME280;7491;57.750;11.970;2024-03-23T06:13:33;75275.00;;;-142.11;100.00
14800;BME280;7491;57.750;11.970;2024-03-23T06:16:00;75246.47;;;-142.11;100.00
14800;BME280;7491;57.750;11.970;2024-03-23T06:18:26;75256.66;;;-142.11;100.00
14800;BME280;7491;57.750;11.970;2024-03-23T06:20:53;75262.75;;;-142.11;100.00
14800;BME280;7491;57.750;11.970;2024-03-23T06:23:20;75254.63;;;-142.11;100.00
14800;BME280;7491;57.750;11.970;2024-03-23T06:25:47;75244.44;;;-142.11;100.00
14800;BME280;7491;57.750;11.970;2024-03-23T06:28:13;75232.19;;;-142.11;100.00
14800;BME280;7491;57.750;11.970;2024-03-23T06:30:40;75224.03;;;-142.11;100.00
14800;BME280;7491;57.750;11.970;2024-03-23T06:33:06;75219.97;;;-142.11;100.00
14800;BME280;7491;57.750;11.970;2024-03-23T06:35:33;75222.00;;;-142.11;100.00
14800;BME280;7491;57.750;11.970;2024-03-23T06:37:59;75213.84;;;-142.11;100.00
14800;BME280;7491;57.750;11.970;2024-03-23T06:40:27;75215.91;;;-142.11;100.00
14800;BME280;7491;57.750;11.970;2024-03-23T06:42:52;75222.00;;;-142.11;100.00
14800;BME280;7491;57.750;11.970;2024-03-23T06:45:19;75211.81;;;-142.11;100.00
14800;BME280;7491;57.750;11.970;2024-03-23T06:47:48;75197.56;;;-142.11;100.00
14800;BME280;7491;57.750;11.970;2024-03-23T06:50:15;75195.50;;;-142.11;100.00
14800;BME280;7491;57.750;11.970;2024-03-23T06:52:41;75164.94;;;-142.11;100.00
14800;BME280;7491;57.750;11.970;2024-03-23T06:55:08;75130.31;;;-142.11;100.00
14800;BME280;7491;57.750;11.970;2024-03-23T06:57:35;75099.72;;;-142.11;100.00
14800;BME280;7491;57.750;11.970;2024-03-23T07:00:02;75093.63;;;-142.11;100.00
14800;BME280;7491;57.750;11.970;2024-03-23T07:02:28;75103.81;;;-142.11;100.00
14800;BME280;7491;57.750;11.970;2024-03-23T07:04:54;75087.50;;;-142.11;100.00
14800;BME280;7491;57.750;11.970;2024-03-23T07:07:21;75099.72;;;-142.11;100.00
14800;BME280;7491;57.750;11.970;2024-03-23T07:09:48;75099.72;;;-142.11;100.00
14800;BME280;7491;57.750;11.970;2024-03-23T07:12:14;75083.44;;;-142.11;100.00
14800;BME280;7491;57.750;11.970;2024-03-23T07:14:42;75093.63;;;-142.11;100.00
14800;BME280;7491;57.750;11.970;2024-03-23T07:17:08;75071.19;;;-142.11;100.00
14800;BME280;7491;57.750;11.970;2024-03-23T07:19:34;75052.88;;;-142.11;100.00
14800;BME280;7491;57.750;11.970;2024-03-23T07:22:00;75065.09;;;-142.11;100.00
14800;BME280;7491;57.750;11.970;2024-03-23T07:24:27;75044.72;;;-142.11;100.00
14800;BME280;7491;57.750;11.970;2024-03-23T07:26:52;75048.78;;;-142.11;100.00
14800;BME280;7491;57.750;11.970;2024-03-23T07:29:19;75008.03;;;-142.11;100.00
14800;BME280;7491;57.750;11.970;2024-03-23T07:31:46;75012.09;;;-142.11;100.00
14800;BME280;7491;57.750;11.970;2024-03-23T07:34:13;74999.88;;;-142.11;100.00
14800;BME280;7491;57.750;11.970;2024-03-23T07:36:39;74981.53;;;-142.11;100.00
14800;BME280;7491;57.750;11.970;2024-03-23T07:39:05;74979.50;;;-142.11;100.00
14800;BME280;7491;57.750;11.970;2024-03-23T07:41:31;74957.09;;;-142.11;100.00
14800;BME280;7491;57.750;11.970;2024-03-23T07:43:58;74950.97;;;-142.11;100.00
14800;BME280;7491;57.750;11.970;2024-03-23T07:46:23;74967.28;;;-142.11;100.00
14800;BME280;7491;57.750;11.970;2024-03-23T07:48:52;74971.34;;;-142.11;100.00
14800;BME280;7491;57.750;11.970;2024-03-23T07:51:21;74955.03;;;-142.11;100.00
14800;BME280;7491;57.750;11.970;2024-03-23T07:53:48;74967.28;;;-142.11;100.00
14800;BME280;7491;57.750;11.970;2024-03-23T07:56:15;74965.25;;;-142.11;100.00
14800;BME280;7491;57.750;11.970;2024-03-23T07:58:43;74969.31;;;-142.11;100.00
14800;BME280;7491;57.750;11.970;2024-03-23T08:01:13;74959.13;;;-142.11;100.00
14800;BME280;7491;57.750;11.970;2024-03-23T08:03:49;74981.53;;;-142.11;100.00
14800;BME280;7491;57.750;11.970;2024-03-23T08:06:18;74993.75;;;-142.11;100.00
14800;BME280;7491;57.750;11.970;2024-03-23T08:08:55;75018.22;;;-142.11;100.00
14800;BME280;7491;57.750;11.970;2024-03-23T08:11:25;75026.38;;;-142.11;100.00
14800;BME280;7491;57.750;11.970;2024-03-23T08:13:52;75026.38;;;-142.11;100.00
14800;BME280;7491;57.750;11.970;2024-03-23T08:16:17;75018.22;;;-142.11;100.00
14800;BME280;7491;57.750;11.970;2024-03-23T08:18:44;75024.34;;;-142.11;100.00
14800;BME280;7491;57.750;11.970;2024-03-23T08:21:10;75030.44;;;-142.11;100.00
14800;BME280;7491;57.750;11.970;2024-03-23T08:23:39;75022.28;;;-142.11;100.00
14800;BME280;7491;57.750;11.970;2024-03-23T08:26:07;74997.84;;;-142.11;100.00
14800;BME280;7491;57.750;11.970;2024-03-23T08:28:33;74989.69;;;-142.11;100.00
14800;BME280;7491;57.750;11.970;2024-03-23T08:31:01;74971.34;;;-142.11;100.00
14800;BME280;7491;57.750;11.970;2024-03-23T08:33:27;74965.25;;;-142.11;100.00
14800;BME280;7491;57.750;11.970;2024-03-23T08:35:56;74969.31;;;-142.11;100.00
14800;BME280;7491;57.750;11.970;2024-03-23T08:38:23;74967.28;;;-142.11;100.00
14800;BME280;7491;57.750;11.970;2024-03-23T08:41:05;74957.09;;;-142.11;100.00
14800;BME280;7491;57.750;11.970;2024-03-23T08:43:47;74936.72;;;-142.11;100.00
14800;BME280;7491;57.750;11.970;2024-03-23T08:46:24;74961.16;;;-142.11;100.00
14800;BME280;7491;57.750;11.970;2024-03-23T08:48:51;74944.84;;;-142.11;100.00
14800;BME280;7491;57.750;11.970;2024-03-23T08:51:18;74957.09;;;-142.11;100.00
14800;BME280;7491;57.750;11.970;2024-03-23T08:53:45;74987.66;;;-142.11;100.00
14800;BME280;7491;57.750;11.970;2024-03-23T08:59:22;74959.13;;;-142.11;100.00
14800;BME280;7491;57.750;11.970;2024-03-23T09:01:52;74963.19;;;-142.11;100.00
14800;BME280;7491;57.750;11.970;2024-03-23T09:04:44;74995.81;;;-142.11;100.00
14800;BME280;7491;57.750;11.970;2024-03-23T09:07:13;75001.91;;;-142.11;100.00
14800;BME280;7491;57.750;11.970;2024-03-23T09:09:40;74977.47;;;-142.11;100.00
14800;BME280;7491;57.750;11.970;2024-03-23T09:12:06;74985.63;;;-142.11;100.00
14800;BME280;7491;57.750;11.970;2024-03-23T09:14:55;74999.88;;;-142.11;100.00
14800;BME280;7491;57.750;11.970;2024-03-23T09:17:21;74989.69;;;-142.11;100.00
14800;BME280;7491;57.750;11.970;2024-03-23T09:19:53;74977.47;;;-142.11;100.00
14800;BME280;7491;57.750;11.970;2024-03-23T09:22:19;74957.09;;;-142.11;100.00
14800;BME280;7491;57.750;11.970;2024-03-23T09:24:46;74957.09;;;-142.11;100.00
14800;BME280;7491;57.750;11.970;2024-03-23T09:27:12;74965.25;;;-142.11;100.00
14800;BME280;7491;57.750;11.970;2024-03-23T09:29:39;74967.28;;;-142.11;100.00
14800;BME280;7491;57.750;11.970;2024-03-23T09:32:07;74987.66;;;-142.11;100.00
14800;BME280;7491;57.750;11.970;2024-03-23T09:34:51;74995.81;;;-142.11;100.00
14800;BME280;7491;57.750;11.970;2024-03-23T09:37:17;74987.66;;;-142.11;100.00
14800;BME280;7491;57.750;11.970;2024-03-23T09:39:44;74983.56;;;-142.11;100.00
14800;BME280;7491;57.750;11.970;2024-03-23T09:42:10;74993.75;;;-142.11;100.00
14800;BME280;7491;57.750;11.970;2024-03-23T09:44:37;74985.63;;;-142.11;100.00
14800;BME280;7491;57.750;11.970;2024-03-23T09:47:03;74977.47;;;-142.11;100.00
14800;BME280;7491;57.750;11.970;2024-03-23T09:49:34;74983.56;;;-142.11;100.00
14800;BME280;7491;57.750;11.970;2024-03-23T09:52:02;74985.63;;;-142.11;100.00
14800;BME280;7491;57.750;11.970;2024-03-23T09:54:29;74983.56;;;-142.11;100.00
14800;BME280;7491;57.750;11.970;2024-03-23T09:56:55;74987.66;;;-142.11;100.00
14800;BME280;7491;57.750;11.970;2024-03-23T09:59:22;74997.84;;;-142.11;100.00
14800;BME280;7491;57.750;11.970;2024-03-23T10:01:48;74979.50;;;-142.11;100.00
14800;BME280;7491;57.750;11.970;2024-03-23T10:04:38;74946.91;;;-142.11;100.00
14800;BME280;7491;57.750;11.970;2024-03-23T10:07:13;74950.97;;;-142.11;100.00
14800;BME280;7491;57.750;11.970;2024-03-23T10:09:40;74955.03;;;-142.11;100.00
14800;BME280;7491;57.750;11.970;2024-03-23T10:12:10;74928.56;;;-142.11;100.00
14800;BME280;7491;57.750;11.970;2024-03-23T10:14:40;74900.03;;;-142.11;100.00
14800;BME280;7491;57.750;11.970;2024-03-23T10:17:20;74893.91;;;-142.11;100.00
14800;BME280;7491;57.750;11.970;2024-03-23T10:20:02;74893.91;;;-142.11;100.00
14800;BME280;7491;57.750;11.970;2024-03-23T10:22:28;74879.66;;;-142.11;100.00
14800;BME280;7491;57.750;11.970;2024-03-23T10:25:16;74867.44;;;-142.11;100.00
14800;BME280;7491;57.750;11.970;2024-03-23T10:28:30;74887.81;;;-142.11;100.00
14800;BME280;7491;57.750;11.970;2024-03-23T10:34:35;74891.88;;;-142.11;100.00
14800;BME280;7491;57.750;11.970;2024-03-23T10:37:07;74902.06;;;-142.11;100.00
14800;BME280;7491;57.750;11.970;2024-03-23T10:39:35;74900.03;;;-142.11;100.00
14800;BME280;7491;57.750;11.970;2024-03-23T10:42:04;74873.53;;;-142.11;100.00
14800;BME280;7491;57.750;11.970;2024-03-23T10:44:52;74861.31;;;-142.11;100.00
14800;BME280;7491;57.750;11.970;2024-03-23T10:54:27;74834.81;;;-142.11;100.00
14800;BME280;7491;57.750;11.970;2024-03-23T11:07:32;74796.09;;;-142.11;100.00
14800;BME280;7491;57.750;11.970;2024-03-23T11:38:15;74798.16;;;-142.11;100.00
14800;BME280;7491;57.750;11.970;2024-03-23T11:48:08;74724.78;;;-142.11;100.00
14800;BME280;7491;57.750;11.970;2024-03-23T11:51:00;74706.44;;;-142.11;100.00
14800;BME280;7491;57.750;11.970;2024-03-23T11:53:27;74694.22;;;-142.11;100.00
14800;BME280;7491;57.750;11.970;2024-03-23T11:55:55;74682.00;;;-142.11;100.00
14800;BME280;7491;57.750;11.970;2024-03-23T11:58:23;74667.72;;;-142.11;100.00
14800;BME280;7491;57.750;11.970;2024-03-23T12:00:50;74661.63;;;-142.11;100.00
14800;BME280;7491;57.750;11.970;2024-03-23T12:03:18;74647.34;;;-142.11;100.00
14800;BME280;7491;57.750;11.970;2024-03-23T12:05:48;74643.28;;;-142.11;100.00
14800;BME280;7491;57.750;11.970;2024-03-23T12:08:21;74643.28;;;-142.11;100.00
14800;BME280;7491;57.750;11.970;2024-03-23T12:10:53;74631.06;;;-142.11;100.00
14800;BME280;7491;57.750;11.970;2024-03-23T12:13:50;74633.09;;;-142.11;100.00
14800;BME280;7491;57.750;11.970;2024-03-23T12:16:18;74602.53;;;-142.11;100.00
14800;BME280;7491;57.750;11.970;2024-03-23T12:18:48;74635.13;;;-142.11;100.00
14800;BME280;7491;57.750;11.970;2024-03-23T12:21:14;74647.34;;;-142.11;100.00
14800;BME280;7491;57.750;11.970;2024-03-23T12:23:44;74671.81;;;-142.11;100.00
14800;BME280;7491;57.750;11.970;2024-03-23T12:26:10;74688.09;;;-142.11;100.00
14800;BME280;7491;57.750;11.970;2024-03-23T12:28:37;74712.56;;;-142.11;100.00
14800;BME280;7491;57.750;11.970;2024-03-23T12:31:05;74722.75;;;-142.11;100.00
14800;BME280;7491;57.750;11.970;2024-03-23T12:33:38;74708.47;;;-142.11;100.00
14800;BME280;7491;57.750;11.970;2024-03-23T12:36:07;74767.56;;;-142.11;100.00
14800;BME280;7491;57.750;11.970;2024-03-23T12:38:37;74724.78;;;-142.11;100.00
14800;BME280;7491;57.750;11.970;2024-03-23T12:41:19;74726.81;;;-142.11;100.00
14800;BME280;7491;57.750;11.970;2024-03-23T12:45:33;74741.09;;;-142.11;100.00
14800;BME280;7491;57.750;11.970;2024-03-23T12:47:14;74712.56;;;-142.11;100.00
14800;BME280;7491;57.750;11.970;2024-03-23T12:49:45;74765.53;;;-142.11;100.00
14800;BME280;7491;57.750;11.970;2024-03-23T12:52:12;74749.25;;;-142.11;100.00
14800;BME280;7491;57.750;11.970;2024-03-23T12:54:42;74728.88;;;-142.11;100.00
14800;BME280;7491;57.750;11.970;2024-03-23T12:57:12;74706.44;;;-142.11;100.00
14800;BME280;7491;57.750;11.970;2024-03-23T12:59:44;74714.59;;;-142.11;100.00
14800;BME280;7491;57.750;11.970;2024-03-23T13:02:27;74712.56;;;-142.11;100.00
14800;BME280;7491;57.750;11.970;2024-03-23T13:05:33;74667.72;;;-142.11;100.00
14800;BME280;7491;57.750;11.970;2024-03-23T13:08:06;74669.78;;;-142.11;100.00
14800;BME280;7491;57.750;11.970;2024-03-23T13:10:37;74696.25;;;-142.11;100.00
14800;BME280;7491;57.750;11.970;2024-03-23T13:13:06;74694.22;;;-142.11;100.00
14800;BME280;7491;57.750;11.970;2024-03-23T13:15:34;74669.78;;;-142.11;100.00
14800;BME280;7491;57.750;11.970;2024-03-23T13:18:00;74706.44;;;-142.11;100.00
14800;BME280;7491;57.750;11.970;2024-03-23T13:20:26;74677.91;;;-142.11;100.00
14800;BME280;7491;57.750;11.970;2024-03-23T13:22:53;74690.16;;;-142.11;100.00
14800;BME280;7491;57.750;11.970;2024-03-23T13:25:25;74732.94;;;-142.11;100.00
14800;BME280;7491;57.750;11.970;2024-03-23T13:27:54;74698.28;;;-142.11;100.00
14800;BME280;7491;57.750;11.970;2024-03-23T13:30:22;74659.59;;;-142.11;100.00
14800;BME280;7491;57.750;11.970;2024-03-23T13:32:49;74679.97;;;-142.11;100.00
14800;BME280;7491;57.750;11.970;2024-03-23T13:35:15;74708.47;;;-142.11;100.00
14800;BME280;7491;57.750;11.970;2024-03-23T13:37:42;74692.19;;;-142.11;100.00
14800;BME280;7491;57.750;11.970;2024-03-23T13:40:09;74673.84;;;-142.11;100.00
14800;BME280;7491;57.750;11.970;2024-03-23T13:42:36;74647.34;;;-142.11;100.00
14800;BME280;7491;57.750;11.970;2024-03-23T13:45:03;74637.16;;;-142.11;100.00
14800;BME280;7491;57.750;11.970;2024-03-23T13:47:31;74626.97;;;-142.11;100.00
14800;BME280;7491;57.750;11.970;2024-03-23T13:49:57;74635.13;;;-142.11;100.00
14800;BME280;7491;57.750;11.970;2024-03-23T13:52:24;74661.63;;;-142.11;100.00
14800;BME280;7491;57.750;11.970;2024-03-23T13:54:51;74688.09;;;-142.11;100.00
14800;BME280;7491;57.750;11.970;2024-03-23T13:57:18;74673.84;;;-142.11;100.00
14800;BME280;7491;57.750;11.970;2024-03-23T13:59:46;74673.84;;;-142.11;100.00
14800;BME280;7491;57.750;11.970;2024-03-23T14:02:14;74690.16;;;-142.11;100.00
14800;BME280;7491;57.750;11.970;2024-03-23T14:04:41;74692.19;;;-142.11;100.00
14800;BME280;7491;57.750;11.970;2024-03-23T14:07:08;74716.63;;;-142.11;100.00
14800;BME280;7491;57.750;11.970;2024-03-23T14:09:34;74708.47;;;-142.11;100.00
14800;BME280;7491;57.750;11.970;2024-03-23T14:12:18;74779.81;;;-142.11;100.00
14800;BME280;7491;57.750;11.970;2024-03-23T14:14:47;74753.31;;;-142.11;100.00
14800;BME280;7491;57.750;11.970;2024-03-23T14:17:14;74759.44;;;-142.11;100.00
14800;BME280;7491;57.750;11.970;2024-03-23T14:46:47;74724.78;;;-142.11;100.00
14800;BME280;7491;57.750;11.970;2024-03-23T14:59:14;74728.88;;;-142.11;100.00
14800;BME280;7491;57.750;11.970;2024-03-23T15:01:41;74732.94;;;-142.11;100.00
14800;BME280;7491;57.750;11.970;2024-03-23T15:04:07;74745.16;;;-142.11;100.00
14800;BME280;7491;57.750;11.970;2024-03-23T15:06:49;74745.16;;;-142.11;100.00
14800;BME280;7491;57.750;11.970;2024-03-23T15:10:27;74773.69;;;-142.11;100.00